Time;durP1;ratioP1;P1;durP2;ratioP2;P2;SDS_P1;SDS_P2;PMS_P1;PMS_P2;Temp;Humidity;BMP_temperature;BMP_pressure;BME280_temperature;BME280_humidity;BME280_pressure;Samples;Min_cycle;Max_cycle;Signal;HPM_P1;HPM_P2
2023/05/05 00:01:36;;;;;;;;;3.00;1.00;;;;;-143.57;100.00;65101.44;5097755;27;45420;-44
2023/05/05 00:04:02;;;;;;;;;3.33;3.00;;;;;-143.57;100.00;65101.44;5096847;27;45389;-42
2023/05/05 00:06:27;;;;;;;;;0.25;0.00;;;;;-143.57;100.00;65101.44;5097327;27;45472;-40
2023/05/05 00:08:53;;;;;;;;;0.00;0.00;;;;;-143.57;100.00;65101.44;5097539;27;45682;-43
2023/05/05 00:11:19;;;;;;;;;0.00;0.00;;;;;-143.57;100.00;65101.44;5097569;27;45311;-40
2023/05/05 00:13:44;;;;;;;;;3.00;1.75;;;;;-143.57;100.00;65101.44;5097045;27;45318;-39
2023/05/05 00:16:09;;;;;;;;;1.00;1.00;;;;;-143.57;100.00;65101.44;5097355;27;45990;-41
2023/05/05 00:18:35;;;;;;;;;1.75;0.00;;;;;-143.57;100.00;65101.44;5097260;27;45406;-41
2023/05/05 00:21:00;;;;;;;;;0.50;0.50;;;;;-143.57;100.00;65101.44;5097255;27;45445;-44
2023/05/05 00:23:25;;;;;;;;;0.50;0.00;;;;;-143.57;100.00;65101.44;5097134;27;45918;-40
2023/05/05 00:25:51;;;;;;;;;3.00;2.00;;;;;-143.57;100.00;65101.44;5097026;27;45239;-43
2023/05/05 00:28:16;;;;;;;;;1.00;1.00;;;;;-143.57;100.00;65101.44;5097144;27;45228;-40
2023/05/05 00:30:41;;;;;;;;;1.25;1.00;;;;;-143.57;100.00;65101.44;5100812;27;45290;-41
2023/05/05 00:33:07;;;;;;;;;1.00;1.00;;;;;-143.57;100.00;65101.44;5100575;27;47141;-40
2023/05/05 00:35:34;;;;;;;;;2.00;1.00;;;;;-143.57;100.00;65101.44;5100542;27;45447;-43
2023/05/05 00:38:00;;;;;;;;;2.00;0.00;;;;;-143.57;100.00;65101.44;5100727;27;45297;-41
2023/05/05 00:40:25;;;;;;;;;1.25;0.75;;;;;-143.57;100.00;65101.44;5100812;27;45412;-41
2023/05/05 00:42:51;;;;;;;;;2.00;1.00;;;;;-143.57;100.00;65101.44;5100401;27;46989;-42
2023/05/05 00:45:18;;;;;;;;;0.50;0.25;;;;;-143.57;100.00;65101.44;5100514;27;45948;-39
2023/05/05 00:47:55;;;;;;;;;1.00;1.00;;;;;-143.57;100.00;65101.44;5100656;27;45322;-40
2023/05/05 00:50:29;;;;;;;;;1.75;1.00;;;;;-143.57;100.00;65101.44;5100726;27;45157;-41
2023/05/05 00:53:02;;;;;;;;;0.50;0.50;;;;;-143.57;100.00;65101.44;5099758;27;45483;-40
2023/05/05 00:55:32;;;;;;;;;1.50;1.00;;;;;-143.57;100.00;65101.44;5100027;27;45414;-40
2023/05/05 00:57:59;;;;;;;;;2.50;1.00;;;;;-143.57;100.00;65101.44;5100370;27;45402;-40
2023/05/05 01:00:25;;;;;;;;;4.00;1.50;;;;;-143.57;100.00;65101.44;5100404;27;45363;-41
2023/05/05 01:02:51;;;;;;;;;1.00;1.00;;;;;-143.57;100.00;65101.44;5099295;27;46217;-41
2023/05/05 01:05:18;;;;;;;;;2.00;2.00;;;;;-143.57;100.00;65101.44;5100014;27;45762;-41
2023/05/05 01:07:43;;;;;;;;;1.00;1.00;;;;;-143.57;100.00;65101.44;5100091;27;45247;-40
2023/05/05 01:10:21;;;;;;;;;2.00;1.25;;;;;-143.57;100.00;65101.44;5100358;27;45331;-42
2023/05/05 01:13:03;;;;;;;;;1.00;1.00;;;;;-143.57;100.00;65101.44;5099874;27;47322;-40
2023/05/05 01:15:45;;;;;;;;;2.50;1.00;;;;;-143.57;100.00;65101.44;5099745;27;45370;-40
2023/05/05 01:18:36;;;;;;;;;1.25;1.00;;;;;-143.57;100.00;65101.44;5099915;27;45369;-42
2023/05/05 01:21:04;;;;;;;;;1.25;1.00;;;;;-143.57;100.00;65101.44;5099987;27;45327;-39
2023/05/05 01:24:07;;;;;;;;;1.00;1.00;;;;;-143.57;100.00;65101.44;5099678;27;47158;-43
2023/05/05 01:26:50;;;;;;;;;2.25;1.00;;;;;-143.57;100.00;65101.44;5099565;27;45171;-42
2023/05/05 01:29:35;;;;;;;;;1.00;1.00;;;;;-143.57;100.00;65101.44;5099836;27;45376;-41
2023/05/05 01:32:05;;;;;;;;;2.67;2.00;;;;;-143.57;100.00;65101.44;5099857;27;45368;-39
2023/05/05 01:35:01;;;;;;;;;1.33;0.00;;;;;-143.57;100.00;65101.44;5099628;27;46226;-40
2023/05/05 01:37:38;;;;;;;;;0.00;0.00;;;;;-143.57;100.00;65101.44;5092524;27;45271;-40
2023/05/05 01:40:06;;;;;;;;;1.50;1.00;;;;;-143.57;100.00;65101.44;5099282;27;45275;-43
2023/05/05 01:42:35;;;;;;;;;2.00;2.00;;;;;-143.57;100.00;65101.44;5099751;27;45411;-46
2023/05/05 01:45:05;;;;;;;;;1.00;1.00;;;;;-143.57;100.00;65101.44;5099267;27;46675;-43
2023/05/05 01:47:31;;;;;;;;;1.25;0.75;;;;;-143.57;100.00;65101.44;5099215;27;45330;-43
2023/05/05 01:49:59;;;;;;;;;4.00;2.00;;;;;-143.57;100.00;65101.44;5099541;27;45361;-40
2023/05/05 01:52:26;;;;;;;;;1.00;1.00;;;;;-143.57;100.00;65101.44;5099895;27;45432;-40
2023/05/05 01:54:52;;;;;;;;;1.00;1.00;;;;;-143.57;100.00;65101.44;5099286;27;45448;-46
2023/05/05 01:57:20;;;;;;;;;1.00;1.00;;;;;-143.57;100.00;65101.44;5099085;27;45761;-46
2023/05/05 01:59:45;;;;;;;;;1.00;1.00;;;;;-143.57;100.00;65101.44;5099740;27;45363;-42
2023/05/05 02:02:13;;;;;;;;;1.00;1.00;;;;;-143.57;100.00;65101.44;5099507;27;45322;-44
2023/05/05 02:04:42;;;;;;;;;4.00;2.00;;;;;-143.57;100.00;65101.44;5099290;27;46277;-46
2023/05/05 02:07:11;;;;;;;;;1.00;1.00;;;;;-143.57;100.00;65101.44;5099288;27;45348;-42
2023/05/05 02:09:37;;;;;;;;;2.33;2.33;;;;;-143.57;100.00;65101.44;5099401;27;45347;-43
2023/05/05 02:12:04;;;;;;;;;0.67;0.00;;;;;-143.57;100.00;65101.44;5099530;27;45502;-42
2023/05/05 02:14:31;;;;;;;;;1.00;1.00;;;;;-143.57;100.00;65101.44;5098933;27;46135;-46
2023/05/05 02:16:57;;;;;;;;;3.67;2.00;;;;;-143.57;100.00;65101.44;5098430;27;45291;-42
2023/05/05 02:19:35;;;;;;;;;1.00;1.00;;;;;-143.57;100.00;65101.44;5099442;27;45528;-45
2023/05/05 02:22:00;;;;;;;;;2.00;2.00;;;;;-143.57;100.00;65101.44;5098396;27;45483;-44
2023/05/05 02:24:26;;;;;;;;;1.00;1.00;;;;;-143.57;100.00;65101.44;5099012;27;46342;-46
2023/05/05 02:26:53;;;;;;;;;2.00;0.00;;;;;-143.57;100.00;65101.44;5099069;27;45415;-41
2023/05/05 02:29:26;;;;;;;;;1.00;1.00;;;;;-143.57;100.00;65101.44;5098622;27;45438;-45
2023/05/05 02:31:56;;;;;;;;;1.00;1.00;;;;;-143.57;100.00;65101.44;5099581;27;45404;-44
2023/05/05 02:34:26;;;;;;;;;2.00;2.00;;;;;-143.57;100.00;65101.44;5098995;27;45612;-43
2023/05/05 02:36:56;;;;;;;;;0.67;0.67;;;;;-143.57;100.00;65101.44;5098847;27;45186;-45
2023/05/05 02:39:29;;;;;;;;;2.00;1.00;;;;;-143.57;100.00;65101.44;5098692;27;45340;-44
2023/05/05 02:41:57;;;;;;;;;2.67;1.67;;;;;-143.57;100.00;65101.44;5099007;27;45368;-43
2023/05/05 02:44:24;;;;;;;;;2.67;2.67;;;;;-143.57;100.00;65101.44;5098321;27;46306;-46
2023/05/05 02:46:50;;;;;;;;;2.00;2.00;;;;;-143.57;100.00;65101.44;5098547;27;45262;-44
2023/05/05 02:49:15;;;;;;;;;1.00;1.00;;;;;-143.57;100.00;65101.44;5098061;27;45271;-45
2023/05/05 02:51:40;;;;;;;;;2.67;2.67;;;;;-143.57;100.00;65101.44;5098330;27;45168;-43
2023/05/05 02:54:06;;;;;;;;;1.33;1.33;;;;;-143.57;100.00;65101.44;5098794;27;46136;-45
2023/05/05 02:56:49;;;;;;;;;1.00;1.00;;;;;-143.57;100.00;65101.44;5098554;27;45377;-44
2023/05/05 03:00:04;;;;;;;;;3.00;1.33;;;;;-143.57;100.00;65101.44;5098606;27;45455;-45
2023/05/05 03:02:43;;;;;;;;;2.00;1.00;;;;;-143.57;100.00;65101.44;5015587;28;45461;-43
2023/05/05 03:05:18;;;;;;;;;4.33;3.00;;;;;-143.57;100.00;65101.44;5015342;28;46256;-45
2023/05/05 03:08:01;;;;;;;;;3.67;3.33;;;;;-143.57;100.00;65101.44;5015110;28;45486;-45
2023/05/05 03:10:29;;;;;;;;;5.00;3.33;;;;;-143.57;100.00;65101.44;5015203;28;45409;-48
2023/05/05 03:12:58;;;;;;;;;5.00;3.33;;;;;-143.57;100.00;65101.44;5015351;28;45516;-45
2023/05/05 03:15:43;;;;;;;;;3.33;3.00;;;;;-143.57;100.00;65101.44;5015098;28;46198;-45
2023/05/05 03:18:10;;;;;;;;;3.00;2.00;;;;;-143.57;100.00;65101.44;5015335;28;45514;-46
2023/05/05 03:20:38;;;;;;;;;1.00;1.00;;;;;-143.57;100.00;65101.44;5015120;28;45439;-44
2023/05/05 03:23:04;;;;;;;;;2.00;2.00;;;;;-143.57;100.00;65101.44;5015303;28;45294;-44
2023/05/05 03:25:46;;;;;;;;;2.00;2.00;;;;;-143.57;100.00;65101.44;5015087;28;45938;-45
2023/05/05 03:28:12;;;;;;;;;3.67;3.67;;;;;-143.57;100.00;65101.44;5014939;28;45596;-43
2023/05/05 03:30:37;;;;;;;;;5.00;2.00;;;;;-143.57;100.00;65101.44;5015270;28;45368;-46
2023/05/05 03:33:03;;;;;;;;;2.00;2.00;;;;;-143.57;100.00;65101.44;5015007;28;45344;-45
2023/05/05 03:35:28;;;;;;;;;4.00;1.67;;;;;-143.57;100.00;65101.44;5015014;28;46492;-45
2023/05/05 03:37:54;;;;;;;;;2.33;2.33;;;;;-143.57;100.00;65101.44;5023338;27;45519;-45
2023/05/05 03:40:20;;;;;;;;;2.00;2.00;;;;;-143.57;100.00;65101.44;5098074;27;45250;-45
2023/05/05 03:42:45;;;;;;;;;3.00;3.00;;;;;-143.57;100.00;65101.44;5097964;27;45541;-45
2023/05/05 03:45:11;;;;;;;;;2.00;2.00;;;;;-143.57;100.00;65101.44;5097450;27;47133;-44
2023/05/05 03:47:36;;;;;;;;;4.00;1.67;;;;;-143.57;100.00;65101.44;5097691;27;45476;-43
2023/05/05 03:50:01;;;;;;;;;3.67;1.67;;;;;-143.57;100.00;65101.44;5097769;27;45573;-45
2023/05/05 03:52:27;;;;;;;;;1.00;1.00;;;;;-143.57;100.00;65101.44;5097912;27;45339;-43
2023/05/05 03:54:53;;;;;;;;;3.00;0.00;;;;;-143.57;100.00;65101.44;5097499;27;46066;-39
2023/05/05 03:57:18;;;;;;;;;1.67;1.00;;;;;-143.57;100.00;65101.44;5097664;27;45355;-47
2023/05/05 03:59:43;;;;;;;;;6.00;2.33;;;;;-143.57;100.00;65101.44;5097604;27;45481;-44
2023/05/05 04:02:09;;;;;;;;;3.00;2.00;;;;;-143.57;100.00;65101.44;5097922;27;45479;-45
2023/05/05 04:04:34;;;;;;;;;2.67;2.33;;;;;-143.57;100.00;65101.44;5077925;27;45500;-42
2023/05/05 04:06:59;;;;;;;;;3.33;1.00;;;;;-143.57;100.00;65101.44;5096459;27;45279;-49
2023/05/05 04:09:25;;;;;;;;;3.33;2.00;;;;;-143.57;100.00;65101.44;5079531;27;45446;-41
2023/05/05 04:11:50;;;;;;;;;2.00;2.00;;;;;-143.57;100.00;65101.44;5097592;27;45308;-45
2023/05/05 04:14:15;;;;;;;;;5.33;3.67;;;;;-143.57;100.00;65101.44;5097415;27;46092;-43
2023/05/05 04:16:41;;;;;;;;;1.67;1.00;;;;;-143.57;100.00;65101.44;5097088;27;45418;-42
2023/05/05 04:19:06;;;;;;;;;4.67;1.67;;;;;-143.57;100.00;65101.44;5079069;27;45328;-44
2023/05/05 04:21:32;;;;;;;;;6.00;1.33;;;;;-143.57;100.00;65101.44;5097656;27;45248;-42
2023/05/05 04:23:57;;;;;;;;;4.33;3.67;;;;;-143.57;100.00;65101.44;5097169;27;45418;-43
2023/05/05 04:26:23;;;;;;;;;2.00;2.00;;;;;-143.57;100.00;65101.44;5097533;27;45256;-46
2023/05/05 04:28:48;;;;;;;;;3.00;2.00;;;;;-143.57;100.00;65101.44;5097246;27;45344;-42
2023/05/05 04:31:13;;;;;;;;;4.33;3.00;;;;;-143.57;100.00;65101.44;5097352;27;45550;-44
2023/05/05 04:33:39;;;;;;;;;1.67;1.67;;;;;-143.57;100.00;65101.44;5097018;27;46044;-44
2023/05/05 04:36:04;;;;;;;;;4.67;3.00;;;;;-143.57;100.00;65101.44;5096980;27;45414;-43
2023/05/05 04:38:30;;;;;;;;;1.00;1.00;;;;;-143.57;100.00;65101.44;5097186;27;45314;-45
2023/05/05 04:40:55;;;;;;;;;1.00;1.00;;;;;-143.57;100.00;65101.44;5097266;27;45360;-39
2023/05/05 04:43:21;;;;;;;;;5.00;2.00;;;;;-143.57;100.00;65101.44;5097034;27;45574;-47
2023/05/05 04:45:54;;;;;;;;;2.00;2.00;;;;;-143.57;100.00;65101.44;5096925;27;45432;-43
2023/05/05 04:48:19;;;;;;;;;3.33;2.00;;;;;-143.57;100.00;65101.44;5097155;27;45180;-45
2023/05/05 04:50:46;;;;;;;;;1.00;1.00;;;;;-143.57;100.00;65101.44;5097336;27;45226;-43
2023/05/05 04:53:11;;;;;;;;;2.00;2.00;;;;;-143.57;100.00;65101.44;5078678;27;47137;-44
2023/05/05 04:55:38;;;;;;;;;3.33;1.67;;;;;-143.57;100.00;65101.44;5096832;27;45457;-44
2023/05/05 04:58:03;;;;;;;;;4.00;3.00;;;;;-143.57;100.00;65101.44;5097097;27;45355;-45
2023/05/05 05:00:28;;;;;;;;;3.00;2.00;;;;;-143.57;100.00;65101.44;5097009;27;45477;-44
2023/05/05 05:02:54;;;;;;;;;1.00;1.00;;;;;-143.57;100.00;65101.44;5096987;27;45420;-46
2023/05/05 05:05:20;;;;;;;;;3.00;3.00;;;;;-143.57;100.00;65101.44;5096939;27;45392;-43
2023/05/05 05:07:45;;;;;;;;;6.00;3.00;;;;;-143.57;100.00;65101.44;5096914;27;45203;-41
2023/05/05 05:10:11;;;;;;;;;2.00;2.00;;;;;-143.57;100.00;65101.44;5097231;27;45417;-44
2023/05/05 05:12:36;;;;;;;;;2.67;2.67;;;;;-143.57;100.00;65101.44;5096633;27;45919;-44
2023/05/05 05:15:02;;;;;;;;;5.00;2.00;;;;;-143.57;100.00;65101.44;5097549;27;45250;-41
2023/05/05 05:17:29;;;;;;;;;4.00;1.33;;;;;-143.57;100.00;65101.44;5100464;27;45215;-42
2023/05/05 05:19:55;;;;;;;;;3.00;2.00;;;;;-143.57;100.00;65101.44;5100268;27;45416;-40
2023/05/05 05:22:20;;;;;;;;;4.33;2.67;;;;;-143.57;100.00;65101.44;5100498;27;46736;-41
2023/05/05 05:24:46;;;;;;;;;2.33;2.33;;;;;-143.57;100.00;65101.44;5100234;27;45360;-44
2023/05/05 05:27:11;;;;;;;;;2.67;2.00;;;;;-143.57;100.00;65101.44;5100554;27;45471;-41
2023/05/05 05:29:36;;;;;;;;;3.00;3.00;;;;;-143.57;100.00;65101.44;5082337;27;45410;-40
2023/05/05 05:32:02;;;;;;;;;9.33;5.00;;;;;-143.57;100.00;65101.44;5099960;27;46143;-45
2023/05/05 05:34:27;;;;;;;;;4.00;2.33;;;;;-143.57;100.00;65101.44;5100212;27;45338;-41
2023/05/05 05:36:52;;;;;;;;;2.67;2.00;;;;;-143.57;100.00;65101.44;5100142;27;45421;-43
2023/05/05 05:39:18;;;;;;;;;2.00;2.00;;;;;-143.57;100.00;65101.44;5100469;27;45320;-43
2023/05/05 05:41:43;;;;;;;;;4.00;3.00;;;;;-143.57;100.00;65101.44;5100106;27;46129;-45
2023/05/05 05:44:08;;;;;;;;;3.00;2.33;;;;;-143.57;100.00;65101.44;5099840;27;45424;-42
2023/05/05 05:46:34;;;;;;;;;3.00;3.00;;;;;-143.57;100.00;65101.44;5099877;27;45297;-43
2023/05/05 05:48:59;;;;;;;;;5.33;3.00;;;;;-143.57;100.00;65101.44;5100208;27;45302;-44
2023/05/05 05:51:25;;;;;;;;;6.00;3.00;;;;;-143.57;100.00;65101.44;5099789;27;46146;-44
2023/05/05 05:53:50;;;;;;;;;5.00;2.00;;;;;-143.57;100.00;65101.44;5099739;27;45238;-44
2023/05/05 05:56:16;;;;;;;;;5.67;4.33;;;;;-143.57;100.00;65101.44;5098527;27;45451;-44
2023/05/05 05:58:41;;;;;;;;;4.33;4.00;;;;;-143.57;100.00;65101.44;5099710;27;45423;-40
2023/05/05 06:01:07;;;;;;;;;3.67;3.00;;;;;-143.57;100.00;65101.44;5099376;27;46165;-45
2023/05/05 06:03:32;;;;;;;;;2.67;2.00;;;;;-143.57;100.00;65101.44;5099665;27;45384;-43
2023/05/05 06:05:58;;;;;;;;;4.33;2.67;;;;;-143.57;100.00;65101.44;5099623;27;45176;-46
2023/05/05 06:08:23;;;;;;;;;3.00;1.33;;;;;-143.57;100.00;65101.44;5099888;27;45313;-46
2023/05/05 06:10:48;;;;;;;;;2.33;2.33;;;;;-143.57;100.00;65101.44;5099142;27;46272;-46
2023/05/05 06:13:14;;;;;;;;;4.33;3.00;;;;;-143.57;100.00;65101.44;5098450;27;45468;-46
2023/05/05 06:15:39;;;;;;;;;5.33;4.00;;;;;-143.57;100.00;65101.44;5099626;27;45367;-50
2023/05/05 06:18:05;;;;;;;;;4.67;4.33;;;;;-143.57;100.00;65101.44;5099437;27;45612;-46
2023/05/05 06:20:30;;;;;;;;;4.00;4.00;;;;;-143.57;100.00;65101.44;5099033;27;47171;-45
2023/05/05 06:22:56;;;;;;;;;3.00;3.00;;;;;-143.57;100.00;65101.44;5099546;27;45319;-44
2023/05/05 06:25:21;;;;;;;;;4.67;3.67;;;;;-143.57;100.00;65101.44;5099585;27;45483;-47
2023/05/05 06:27:46;;;;;;;;;4.33;4.00;;;;;-143.57;100.00;65101.44;5079997;27;45494;-45
2023/05/05 06:30:13;;;;;;;;;5.67;4.67;;;;;-143.57;100.00;65101.44;5099069;27;46981;-42
2023/05/05 06:32:38;;;;;;;;;5.00;5.00;;;;;-143.57;100.00;65101.44;5099210;27;45378;-44
2023/05/05 06:35:04;;;;;;;;;4.33;4.33;;;;;-143.57;100.00;65101.44;5099287;27;45473;-45
2023/05/05 06:37:30;;;;;;;;;5.00;3.00;;;;;-143.57;100.00;65101.44;5099624;27;45317;-45
2023/05/05 06:39:55;;;;;;;;;6.67;3.33;;;;;-143.57;100.00;65101.44;5099007;27;46197;-43
2023/05/05 06:42:21;;;;;;;;;3.00;3.00;;;;;-143.57;100.00;65101.44;5099046;27;45405;-46
2023/05/05 06:44:46;;;;;;;;;5.00;2.00;;;;;-143.57;100.00;65101.44;5098997;27;45358;-45
2023/05/05 06:47:11;;;;;;;;;8.00;3.00;;;;;-143.57;100.00;65101.44;5099468;27;45251;-47
2023/05/05 06:49:37;;;;;;;;;4.00;3.00;;;;;-143.57;100.00;65101.44;5098897;27;46030;-40
2023/05/05 06:52:02;;;;;;;;;4.33;2.67;;;;;-143.57;100.00;65101.44;5099343;27;45319;-45
2023/05/05 06:54:28;;;;;;;;;5.00;4.33;;;;;-143.57;100.00;65101.44;5098572;27;45472;-43
2023/05/05 06:56:53;;;;;;;;;3.67;3.33;;;;;-143.57;100.00;65101.44;5099252;27;45306;-46
2023/05/05 06:59:18;;;;;;;;;2.67;2.67;;;;;-143.57;100.00;65101.44;5080592;27;47258;-41
2023/05/05 07:01:44;;;;;;;;;3.00;3.00;;;;;-143.57;100.00;65101.44;5098700;27;45368;-40
2023/05/05 07:04:10;;;;;;;;;4.67;4.67;;;;;-143.57;100.00;65101.44;5098891;27;45617;-41
2023/05/05 07:06:35;;;;;;;;;4.33;4.33;;;;;-143.57;100.00;65101.44;5098913;27;45234;-40
2023/05/05 07:09:00;;;;;;;;;4.33;3.00;;;;;-143.57;100.00;65101.44;5098668;27;45650;-40
2023/05/05 07:11:26;;;;;;;;;7.33;4.33;;;;;-143.57;100.00;65101.44;5098548;27;45379;-47
2023/05/05 07:13:51;;;;;;;;;4.00;3.67;;;;;-143.57;100.00;65101.44;5098630;27;45240;-42
2023/05/05 07:16:16;;;;;;;;;3.00;2.33;;;;;-143.57;100.00;65101.44;5098420;27;45414;-45
2023/05/05 07:18:42;;;;;;;;;3.67;2.00;;;;;-143.57;100.00;65101.44;5098213;27;45942;-42
2023/05/05 07:21:07;;;;;;;;;2.33;2.33;;;;;-143.57;100.00;65101.44;5098355;27;45448;-44
2023/05/05 07:23:33;;;;;;;;;1.33;1.00;;;;;-143.57;100.00;65101.44;5098579;27;45379;-45
2023/05/05 07:25:59;;;;;;;;;4.67;2.00;;;;;-143.57;100.00;65101.44;5098489;27;45504;-38
2023/05/05 07:28:25;;;;;;;;;3.33;2.33;;;;;-143.57;100.00;65101.44;5098079;27;46311;-41
2023/05/05 07:30:50;;;;;;;;;2.33;2.33;;;;;-143.57;100.00;65101.44;5098164;27;45414;-43
2023/05/05 07:33:17;;;;;;;;;6.33;3.00;;;;;-143.57;100.00;65101.44;5098121;27;45349;-42
2023/05/05 07:35:43;;;;;;;;;5.00;2.67;;;;;-143.57;100.00;65101.44;5098072;27;45453;-45
2023/05/05 07:38:08;;;;;;;;;5.00;3.00;;;;;-143.57;100.00;65101.44;5097815;27;45432;-40
2023/05/05 07:40:34;;;;;;;;;3.00;3.00;;;;;-143.57;100.00;65101.44;5098194;27;45367;-40
2023/05/05 07:43:00;;;;;;;;;3.00;3.00;;;;;-143.57;100.00;65101.44;5098182;27;45332;-42
2023/05/05 07:45:25;;;;;;;;;4.00;3.33;;;;;-143.57;100.00;65101.44;5098110;27;45516;-40
2023/05/05 07:47:51;;;;;;;;;4.00;4.00;;;;;-143.57;100.00;65101.44;5098059;27;46943;-40
2023/05/05 07:50:17;;;;;;;;;5.33;3.33;;;;;-143.57;100.00;65101.44;5097794;27;45301;-43
2023/05/05 07:52:42;;;;;;;;;4.33;3.00;;;;;-143.57;100.00;65101.44;5097628;27;45425;-40
2023/05/05 07:55:08;;;;;;;;;4.33;3.00;;;;;-143.57;100.00;65101.44;5097898;27;45512;-40
2023/05/05 07:57:33;;;;;;;;;3.67;3.00;;;;;-143.57;100.00;65101.44;5097641;27;46274;-43
2023/05/05 07:59:58;;;;;;;;;4.00;4.00;;;;;-143.57;100.00;65101.44;5097698;27;45350;-41
2023/05/05 08:02:24;;;;;;;;;5.67;4.33;;;;;-143.57;100.00;65101.44;5097750;27;45492;-45
2023/05/05 08:04:49;;;;;;;;;4.00;4.00;;;;;-143.57;100.00;65101.44;5097794;27;45479;-39
2023/05/05 08:07:15;;;;;;;;;8.00;6.00;;;;;-143.57;100.00;65101.44;5097596;27;45328;-44
2023/05/05 08:09:40;;;;;;;;;6.00;6.00;;;;;-143.57;100.00;65101.44;5096672;27;45432;-38
2023/05/05 08:12:06;;;;;;;;;8.67;6.67;;;;;-143.57;100.00;65101.44;5097997;27;45349;-41
2023/05/05 08:14:31;;;;;;;;;4.33;4.33;;;;;-143.57;100.00;65101.44;5097702;27;45401;-39
2023/05/05 08:16:57;;;;;;;;;8.67;5.67;;;;;-143.57;100.00;65101.44;5097517;27;46207;-42
2023/05/05 08:19:23;;;;;;;;;2.00;2.00;;;;;-143.57;100.00;65101.44;5097751;27;45266;-41
2023/05/05 08:21:49;;;;;;;;;3.67;3.00;;;;;-143.57;100.00;65101.44;5097342;27;45322;-40
2023/05/05 08:24:14;;;;;;;;;2.00;2.00;;;;;-143.57;100.00;65101.44;5097457;27;45273;-43
2023/05/05 08:26:39;;;;;;;;;3.00;3.00;;;;;-143.57;100.00;65101.44;5097014;27;46960;-40
2023/05/05 08:29:05;;;;;;;;;2.67;2.00;;;;;-143.57;100.00;65101.44;5097217;27;45479;-44
2023/05/05 08:31:38;;;;;;;;;3.00;3.00;;;;;-143.57;100.00;65101.44;5096674;27;45291;-44
2023/05/05 08:34:04;;;;;;;;;4.00;2.25;;;;;-143.57;100.00;65101.44;5097258;27;45458;-45
2023/05/05 08:36:31;;;;;;;;;1.50;1.50;;;;;-143.57;100.00;65101.44;5097095;27;45427;-39
2023/05/05 08:38:56;;;;;;;;;2.00;2.00;;;;;-143.57;100.00;65101.44;5097129;27;45467;-41
2023/05/05 08:41:22;;;;;;;;;3.67;2.67;;;;;-143.57;100.00;65101.44;5097428;27;45311;-41
2023/05/05 08:43:49;;;;;;;;;3.67;3.67;;;;;-143.57;100.00;65101.44;5097320;27;45398;-40
2023/05/05 08:46:15;;;;;;;;;8.25;5.00;;;;;-143.57;100.00;65101.44;5097149;27;45509;-40
2023/05/05 08:48:42;;;;;;;;;2.25;2.25;;;;;-143.57;100.00;65101.44;5097417;27;45278;-44
2023/05/05 08:51:18;;;;;;;;;5.00;3.25;;;;;-143.57;100.00;65101.44;5100030;27;45451;-44
2023/05/05 08:53:52;;;;;;;;;2.00;2.00;;;;;-143.57;100.00;65101.44;5100546;27;45394;-43
2023/05/05 08:56:20;;;;;;;;;1.00;1.00;;;;;-143.57;100.00;65101.44;5082265;27;46693;-49
2023/05/05 08:58:47;;;;;;;;;3.00;1.00;;;;;-143.57;100.00;65101.44;5100803;27;45605;-42
2023/05/05 09:01:13;;;;;;;;;0.20;0.20;;;;;-143.57;100.00;65101.44;5100938;27;45303;-45
2023/05/05 09:03:39;;;;;;;;;1.80;1.00;;;;;-143.57;100.00;65101.44;5100914;27;45445;-43
2023/05/05 09:06:06;;;;;;;;;2.50;2.50;;;;;-143.57;100.00;65101.44;5100651;27;47098;-43
2023/05/05 09:08:32;;;;;;;;;1.00;1.00;;;;;-143.57;100.00;65101.44;5100688;27;45372;-41
2023/05/05 09:10:59;;;;;;;;;2.60;1.40;;;;;-143.57;100.00;65101.44;5100773;27;45353;-44
2023/05/05 09:13:25;;;;;;;;;0.00;0.00;;;;;-143.57;100.00;65101.44;5100921;27;45500;-43
2023/05/05 09:15:50;;;;;;;;;1.25;1.25;;;;;-143.57;100.00;65101.44;5100515;27;45231;-43
2023/05/05 09:18:15;;;;;;;;;1.50;1.00;;;;;-143.57;100.00;65101.44;5100720;27;45809;-45
2023/05/05 09:20:41;;;;;;;;;1.00;1.00;;;;;-143.57;100.00;65101.44;5100817;27;45482;-44
2023/05/05 09:23:14;;;;;;;;;0.75;0.75;;;;;-143.57;100.00;65101.44;5100808;27;45414;-44
2023/05/05 09:25:42;;;;;;;;;1.60;0.60;;;;;-143.57;100.00;65101.44;5100172;27;45247;-45
2023/05/05 09:28:10;;;;;;;;;1.00;1.00;;;;;-143.57;100.00;65101.44;5100279;27;45266;-42
2023/05/05 09:30:37;;;;;;;;;1.00;1.00;;;;;-143.57;100.00;65101.44;5099533;27;45417;-45
2023/05/05 09:33:02;;;;;;;;;4.00;2.00;;;;;-143.57;100.00;65101.44;5100257;27;45262;-42
2023/05/05 09:35:47;;;;;;;;;0.00;0.00;;;;;-143.57;100.00;65101.44;5100138;27;45258;-45
2023/05/05 09:38:12;;;;;;;;;0.80;0.80;;;;;-143.57;100.00;65101.44;5099580;27;45363;-47
2023/05/05 09:40:45;;;;;;;;;1.50;1.50;;;;;-143.57;100.00;65101.44;5100057;27;45283;-43
2023/05/05 09:43:11;;;;;;;;;3.00;1.00;;;;;-143.57;100.00;65101.44;5099950;27;45448;-42
2023/05/05 09:45:36;;;;;;;;;1.00;1.00;;;;;-143.57;100.00;65101.44;5099478;27;47168;-42
2023/05/05 09:48:02;;;;;;;;;3.00;3.00;;;;;-143.57;100.00;65101.44;5099830;27;45280;-46
2023/05/05 09:50:29;;;;;;;;;1.00;0.75;;;;;-143.57;100.00;65101.44;5100014;27;45747;-44
2023/05/05 09:53:00;;;;;;;;;5.20;1.40;;;;;-143.57;100.00;65101.44;5099801;27;45541;-45
2023/05/05 09:55:26;;;;;;;;;0.20;0.20;;;;;-143.57;100.00;65101.44;5099532;27;45479;-42
2023/05/05 09:57:51;;;;;;;;;1.50;1.50;;;;;-143.57;100.00;65101.44;5099938;27;45381;-45
2023/05/05 10:00:17;;;;;;;;;1.75;1.75;;;;;-143.57;100.00;65101.44;5099911;27;45235;-47
2023/05/05 10:02:42;;;;;;;;;1.00;1.00;;;;;-143.57;100.00;65101.44;5098506;27;45457;-45
2023/05/05 10:05:10;;;;;;;;;2.00;2.00;;;;;-143.57;100.00;65101.44;5099712;27;45238;-46
2023/05/05 10:07:36;;;;;;;;;1.40;1.40;;;;;-143.57;100.00;65101.44;5099586;27;45422;-42
2023/05/05 10:10:04;;;;;;;;;2.40;0.60;;;;;-143.57;100.00;65101.44;5099326;27;45295;-43
2023/05/05 10:12:30;;;;;;;;;0.20;0.20;;;;;-143.57;100.00;65101.44;5099533;27;45688;-44
2023/05/05 10:14:56;;;;;;;;;1.00;0.00;;;;;-143.57;100.00;65101.44;5099325;27;45414;-42
2023/05/05 10:17:22;;;;;;;;;0.80;0.80;;;;;-143.57;100.00;65101.44;5099793;27;45291;-41
2023/05/05 10:19:55;;;;;;;;;4.60;1.80;;;;;-143.57;100.00;65101.44;5098920;27;45452;-42
2023/05/05 10:22:22;;;;;;;;;8.60;5.20;;;;;-143.57;100.00;65101.44;5099230;27;45492;-41
2023/05/05 10:24:57;;;;;;;;;4.60;2.40;;;;;-143.57;100.00;65101.44;5098892;27;46215;-40
2023/05/05 10:27:27;;;;;;;;;4.40;2.40;;;;;-143.57;100.00;65101.44;5099275;27;45381;-45
2023/05/05 10:30:05;;;;;;;;;6.80;5.00;;;;;-143.57;100.00;65101.44;5099094;27;45405;-46
2023/05/05 10:32:47;;;;;;;;;2.20;1.80;;;;;-143.57;100.00;65101.44;5098941;27;45375;-46
2023/05/05 10:35:21;;;;;;;;;5.20;4.40;;;;;-143.57;100.00;65101.44;5099005;27;46951;-46
2023/05/05 10:37:47;;;;;;;;;4.80;3.60;;;;;-143.57;100.00;65101.44;5099036;27;45418;-45
2023/05/05 10:40:14;;;;;;;;;3.75;3.25;;;;;-143.57;100.00;65101.44;5099086;27;45425;-44
2023/05/05 10:42:39;;;;;;;;;2.80;1.80;;;;;-143.57;100.00;65101.44;5099241;27;45368;-45
2023/05/05 10:45:06;;;;;;;;;2.00;2.00;;;;;-143.57;100.00;65101.44;5098521;27;46278;-47
2023/05/05 10:47:33;;;;;;;;;5.00;2.40;;;;;-143.57;100.00;65101.44;5098769;27;45261;-47
2023/05/05 10:50:08;;;;;;;;;2.40;1.40;;;;;-143.57;100.00;65101.44;5099173;27;45433;-41
2023/05/05 10:52:40;;;;;;;;;2.00;0.00;;;;;-143.57;100.00;65101.44;5098932;27;45447;-46
2023/05/05 10:55:40;;;;;;;;;2.20;0.20;;;;;-143.57;100.00;65101.44;5098595;27;46825;-43
2023/05/05 10:58:05;;;;;;;;;2.00;1.20;;;;;-143.57;100.00;65101.44;5015773;28;45333;-41
2023/05/05 11:00:36;;;;;;;;;5.25;4.75;;;;;-143.57;100.00;65101.44;5014566;28;45357;-42
2023/05/05 11:03:17;;;;;;;;;2.00;2.00;;;;;-143.57;100.00;65101.44;5015883;28;45318;-45
2023/05/05 11:06:06;;;;;;;;;5.60;3.40;;;;;-143.57;100.00;65101.44;5015372;28;46342;-41
2023/05/05 11:08:42;;;;;;;;;7.40;4.00;;;;;-143.57;100.00;65101.44;5015394;28;45448;-40
2023/05/05 11:11:09;;;;;;;;;3.80;3.80;;;;;-143.57;100.00;65101.44;5015845;28;45265;-45
2023/05/05 11:13:36;;;;;;;;;1.20;1.20;;;;;-143.57;100.00;65101.44;5015441;28;45444;-45